Time;durP1;ratioP1;P1;durP2;ratioP2;P2;SDS_P1;SDS_P2;PMS_P1;PMS_P2;Temp;Humidity;BMP_temperature;BMP_pressure;BME280_temperature;BME280_humidity;BME280_pressure;Samples;Min_cycle;Max_cycle;Signal;HPM_P1;HPM_P2
2022/05/27 00:02:38;;;;;;;;;;;;;;;-145.66;100.00;59599.19;10374283;28;19937;-62
2022/05/27 00:07:41;;;;;;;;;;;;;;;-145.66;100.00;59599.19;10372978;28;19944;-63
2022/05/27 00:12:43;;;;;;;;;;;;;;;-145.66;100.00;59599.19;10373445;28;19921;-62
2022/05/27 00:17:45;;;;;;;;;;;;;;;-145.66;100.00;59599.19;10373263;28;20249;-62
2022/05/27 00:22:48;;;;;;;;;;;;;;;-145.66;100.00;59599.19;10373119;28;20395;-62
2022/05/27 00:27:50;;;;;;;;;;;;;;;-145.66;100.00;59599.19;10372947;28;20257;-62
2022/05/27 00:32:52;;;;;;;;;;;;;;;-145.66;100.00;59599.19;10374644;28;20378;-63
2022/05/27 00:37:54;;;;;;;;;;;;;;;-145.66;100.00;59599.19;10380449;28;20275;-63
2022/05/27 00:42:57;;;;;;;;;;;;;;;-145.66;100.00;59599.19;10379794;28;20382;-63
2022/05/27 00:47:59;;;;;;;;;;;;;;;-145.66;100.00;59599.19;10380767;28;19921;-63
2022/05/27 00:53:02;;;;;;;;;;;;;;;-145.66;100.00;59599.19;10395968;28;19921;-63
2022/05/27 00:58:09;;;;;;;;;;;;;;;-145.66;100.00;59599.19;10379095;28;19929;-63
2022/05/27 01:03:12;;;;;;;;;;;;;;;-145.66;100.00;59599.19;10394436;28;19921;-62
2022/05/27 01:08:15;;;;;;;;;;;;;;;-145.66;100.00;59599.19;10379267;28;19944;-62
2022/05/27 01:13:17;;;;;;;;;;;;;;;-145.66;100.00;59599.19;10379790;28;19921;-63
2022/05/27 01:24:01;;;;;;;;;;;;;;;-145.66;100.00;59599.19;10378543;28;20284;-62
2022/05/27 01:29:10;;;;;;;;;;;;;;;-145.66;100.00;59599.19;10378873;28;19925;-62
2022/05/27 01:34:21;;;;;;;;;;;;;;;-145.66;100.00;59599.19;10378927;28;19925;-62
2022/05/27 01:39:29;;;;;;;;;;;;;;;-145.66;100.00;59599.19;10378302;28;19922;-62
2022/05/27 01:44:44;;;;;;;;;;;;;;;-145.66;100.00;59599.19;10377015;28;19921;-62
2022/05/27 01:49:52;;;;;;;;;;;;;;;-145.66;100.00;59599.19;10378232;28;19928;-62
2022/05/27 01:55:02;;;;;;;;;;;;;;;-145.66;100.00;59599.19;10378358;28;19921;-62
2022/05/27 02:00:08;;;;;;;;;;;;;;;-145.66;100.00;59599.19;10393536;28;19921;-62
2022/05/27 02:05:14;;;;;;;;;;;;;;;-145.66;100.00;59599.19;10377348;28;19921;-62
2022/05/27 02:10:18;;;;;;;;;;;;;;;-145.66;100.00;59599.19;10375344;28;19921;-62
2022/05/27 02:15:23;;;;;;;;;;;;;;;-145.66;100.00;59599.19;10375759;28;19922;-63
2022/05/27 02:20:28;;;;;;;;;;;;;;;-145.66;100.00;59599.19;10377069;28;19921;-62
2022/05/27 02:25:31;;;;;;;;;;;;;;;-145.66;100.00;59599.19;10391582;28;19927;-63
2022/05/27 02:30:33;;;;;;;;;;;;;;;-145.66;100.00;59599.19;10391731;28;19921;-63
2022/05/27 02:35:36;;;;;;;;;;;;;;;-145.66;100.00;59599.19;10391452;28;19928;-63
2022/05/27 02:40:42;;;;;;;;;;;;;;;-145.66;100.00;59599.19;10390985;28;19929;-63
2022/05/27 02:45:47;;;;;;;;;;;;;;;-145.66;100.00;59599.19;10374743;28;19922;-62
2022/05/27 02:50:54;;;;;;;;;;;;;;;-145.66;100.00;59599.19;10375728;28;19921;-62
2022/05/27 02:56:16;;;;;;;;;;;;;;;-145.66;100.00;59599.19;10373338;28;20289;-63
2022/05/27 03:01:18;;;;;;;;;;;;;;;-145.66;100.00;59599.19;10373643;28;20400;-63
2022/05/27 03:06:21;;;;;;;;;;;;;;;-145.66;100.00;59599.19;10374758;28;19927;-63
2022/05/27 03:11:27;;;;;;;;;;;;;;;-145.66;100.00;59599.19;10375059;28;19922;-63
2022/05/27 03:16:48;;;;;;;;;;;;;;;-145.66;100.00;59599.19;10389564;28;19928;-62
2022/05/27 03:21:56;;;;;;;;;;;;;;;-145.66;100.00;59599.19;10374534;28;20415;-63
2022/05/27 03:27:18;;;;;;;;;;;;;;;-145.66;100.00;59599.19;10389644;28;19929;-62
2022/05/27 03:32:24;;;;;;;;;;;;;;;-145.66;100.00;59599.19;10389015;28;19929;-63
2022/05/27 03:37:39;;;;;;;;;;;;;;;-145.66;100.00;59599.19;10373048;28;19922;-62
2022/05/27 03:42:41;;;;;;;;;;;;;;;-145.66;100.00;59599.19;10371526;28;20388;-62
2022/05/27 03:47:43;;;;;;;;;;;;;;;-145.66;100.00;59599.19;10389514;28;19928;-62
2022/05/27 03:52:46;;;;;;;;;;;;;;;-145.66;100.00;59599.19;10373513;28;20376;-62
2022/05/27 03:57:49;;;;;;;;;;;;;;;-145.66;100.00;59599.19;10373699;28;20376;-63
2022/05/27 04:02:52;;;;;;;;;;;;;;;-145.66;100.00;59599.19;10373699;28;19921;-62
2022/05/27 04:07:58;;;;;;;;;;;;;;;-145.66;100.00;59599.19;10375409;28;20258;-63
2022/05/27 04:13:01;;;;;;;;;;;;;;;-145.66;100.00;59599.19;10381124;28;19938;-63
2022/05/27 04:18:03;;;;;;;;;;;;;;;-145.66;100.00;59599.19;10382025;28;19925;-63
2022/05/27 04:23:06;;;;;;;;;;;;;;;-145.66;100.00;59599.19;10395601;28;19922;-63
2022/05/27 04:28:08;;;;;;;;;;;;;;;-145.66;100.00;59599.19;10380913;28;19921;-62
2022/05/27 04:33:10;;;;;;;;;;;;;;;-145.66;100.00;59599.19;10380261;28;19921;-63
2022/05/27 04:38:12;;;;;;;;;;;;;;;-145.66;100.00;59599.19;10380027;28;20372;-63
2022/05/27 04:43:15;;;;;;;;;;;;;;;-145.66;100.00;59599.19;10379361;28;19921;-62
2022/05/27 04:48:18;;;;;;;;;;;;;;;-145.66;100.00;59599.19;10379001;28;20347;-62
2022/05/27 04:53:20;;;;;;;;;;;;;;;-145.66;100.00;59599.19;10379479;28;19921;-63
2022/05/27 04:58:22;;;;;;;;;;;;;;;-145.66;100.00;59599.19;10379306;28;20368;-63
2022/05/27 05:03:25;;;;;;;;;;;;;;;-145.66;100.00;59599.19;10379579;28;19922;-63
2022/05/27 05:08:28;;;;;;;;;;;;;;;-145.66;100.00;59599.19;10379557;28;19928;-63
2022/05/27 05:13:31;;;;;;;;;;;;;;;-145.66;100.00;59599.19;10379318;28;19921;-63
2022/05/27 05:18:33;;;;;;;;;;;;;;;-145.66;100.00;59599.19;10378950;28;20269;-63
2022/05/27 05:23:36;;;;;;;;;;;;;;;-145.66;100.00;59599.19;10378393;28;20299;-63
2022/05/27 05:28:38;;;;;;;;;;;;;;;-145.66;100.00;59599.19;10378686;28;19922;-63
2022/05/27 05:33:40;;;;;;;;;;;;;;;-145.66;100.00;59599.19;10378600;28;19921;-63
2022/05/27 05:38:42;;;;;;;;;;;;;;;-145.66;100.00;59599.19;10379722;28;19928;-63
2022/05/27 05:43:44;;;;;;;;;;;;;;;-145.66;100.00;59599.19;10377594;28;19929;-63
2022/05/27 05:48:47;;;;;;;;;;;;;;;-145.66;100.00;59599.19;10378036;28;19921;-63
2022/05/27 05:53:49;;;;;;;;;;;;;;;-145.66;100.00;59599.19;10392632;28;19922;-63
2022/05/27 05:58:51;;;;;;;;;;;;;;;-145.66;100.00;59599.19;10377667;28;19928;-63
2022/05/27 06:03:53;;;;;;;;;;;;;;;-145.66;100.00;59599.19;10377312;28;19928;-63
2022/05/27 06:08:56;;;;;;;;;;;;;;;-145.66;100.00;59599.19;10376899;28;19921;-62
2022/05/27 06:13:58;;;;;;;;;;;;;;;-145.66;100.00;59599.19;10376314;28;20379;-63
2022/05/27 06:19:00;;;;;;;;;;;;;;;-145.66;100.00;59599.19;10376650;28;19968;-63
2022/05/27 06:24:03;;;;;;;;;;;;;;;-145.66;100.00;59599.19;10376313;28;19932;-63
2022/05/27 06:34:26;;;;;;;;;;;;;;;-145.66;100.00;59599.19;10375641;28;20276;-63
2022/05/27 06:39:29;;;;;;;;;;;;;;;-145.66;100.00;59599.19;10376229;28;19936;-62
2022/05/27 06:44:36;;;;;;;;;;;;;;;-145.66;100.00;59599.19;10390163;28;19921;-63
2022/05/27 06:49:38;;;;;;;;;;;;;;;-145.66;100.00;59599.19;10376279;28;19921;-63
2022/05/27 06:54:44;;;;;;;;;;;;;;;-145.66;100.00;59599.19;10375711;28;19928;-62
2022/05/27 06:59:46;;;;;;;;;;;;;;;-145.66;100.00;59599.19;10390654;28;19925;-62
2022/05/27 07:04:48;;;;;;;;;;;;;;;-145.66;100.00;59599.19;10373680;28;19921;-63
2022/05/27 07:09:50;;;;;;;;;;;;;;;-145.66;100.00;59599.19;10375091;28;20475;-63
2022/05/27 07:14:53;;;;;;;;;;;;;;;-145.66;100.00;59599.19;10375109;28;20376;-62
2022/05/27 07:19:55;;;;;;;;;;;;;;;-145.66;100.00;59599.19;10374575;28;19929;-62
2022/05/27 07:24:58;;;;;;;;;;;;;;;-145.66;100.00;59599.19;10375018;28;19929;-62
2022/05/27 07:30:00;;;;;;;;;;;;;;;-145.66;100.00;59599.19;10374886;28;19932;-62
2022/05/27 07:35:03;;;;;;;;;;;;;;;-145.66;100.00;59599.19;10374481;28;19925;-63
2022/05/27 07:40:05;;;;;;;;;;;;;;;-145.66;100.00;59599.19;10374287;28;20368;-62
2022/05/27 07:45:09;;;;;;;;;;;;;;;-145.66;100.00;59599.19;10379877;28;19921;-62
2022/05/27 07:50:13;;;;;;;;;;;;;;;-145.66;100.00;59599.19;10382185;28;20288;-63
2022/05/27 07:55:16;;;;;;;;;;;;;;;-145.66;100.00;59599.19;10382153;28;20296;-62
2022/05/27 08:00:25;;;;;;;;;;;;;;;-145.66;100.00;59599.19;10381474;28;20283;-63
2022/05/27 08:05:28;;;;;;;;;;;;;;;-145.66;100.00;59599.19;10397747;28;19921;-63
2022/05/27 08:10:32;;;;;;;;;;;;;;;-145.66;100.00;59599.19;10381707;28;20387;-63
2022/05/27 08:15:34;;;;;;;;;;;;;;;-145.66;100.00;59599.19;10381144;28;20343;-63
2022/05/27 08:20:37;;;;;;;;;;;;;;;-145.66;100.00;59599.19;10381271;28;19921;-68
2022/05/27 08:25:40;;;;;;;;;;;;;;;-145.66;100.00;59599.19;10381142;28;19928;-69
2022/05/27 08:30:43;;;;;;;;;;;;;;;-145.66;100.00;59599.19;10395839;28;19925;-67
2022/05/27 08:41:15;;;;;;;;;;;;;;;-145.66;100.00;59599.19;10381009;28;19928;-63
2022/05/27 08:46:23;;;;;;;;;;;;;;;-145.66;100.00;59599.19;10379834;28;19921;-63
2022/05/27 08:51:27;;;;;;;;;;;;;;;-145.66;100.00;59599.19;10379913;28;19996;-63
2022/05/27 09:01:56;;;;;;;;;;;;;;;-145.66;100.00;59599.19;10392716;28;20262;-63
2022/05/27 09:07:17;;;;;;;;;;;;;;;-145.66;100.00;59599.19;10394909;28;20428;-63
2022/05/27 09:12:26;;;;;;;;;;;;;;;-145.66;100.00;59599.19;10380168;28;19921;-63
2022/05/27 09:17:39;;;;;;;;;;;;;;;-145.66;100.00;59599.19;10379154;28;20289;-63
2022/05/27 09:22:45;;;;;;;;;;;;;;;-145.66;100.00;59599.19;10394186;28;19921;-63
2022/05/27 09:28:10;;;;;;;;;;;;;;;-145.66;100.00;59599.19;10379423;28;19921;-63
2022/05/27 09:33:13;;;;;;;;;;;;;;;-145.66;100.00;59599.19;10370792;28;19925;-63
2022/05/27 09:38:20;;;;;;;;;;;;;;;-145.66;100.00;59599.19;10394358;28;19922;-63
2022/05/27 09:43:34;;;;;;;;;;;;;;;-145.66;100.00;59599.19;10378571;28;19921;-61
2022/05/27 09:48:36;;;;;;;;;;;;;;;-145.66;100.00;59599.19;10378633;28;19926;-63
2022/05/27 09:53:42;;;;;;;;;;;;;;;-145.66;100.00;59599.19;10378331;28;19925;-63
2022/05/27 09:58:45;;;;;;;;;;;;;;;-145.66;100.00;59599.19;10377658;28;19921;-63
2022/05/27 10:03:58;;;;;;;;;;;;;;;-145.66;100.00;59599.19;10378010;28;19922;-63
2022/05/27 10:09:01;;;;;;;;;;;;;;;-145.66;100.00;59599.19;10377078;28;19928;-63
2022/05/27 10:14:13;;;;;;;;;;;;;;;-145.66;100.00;59599.19;10377574;28;19921;-60
2022/05/27 10:19:21;;;;;;;;;;;;;;;-145.66;100.00;59599.19;10377500;28;19921;-60
2022/05/27 10:24:33;;;;;;;;;;;;;;;-145.66;100.00;59599.19;10376476;28;20360;-61
2022/05/27 10:29:47;;;;;;;;;;;;;;;-145.66;100.00;59599.19;10376285;28;19922;-60
2022/05/27 10:34:49;;;;;;;;;;;;;;;-145.66;100.00;59599.19;10376182;28;19922;-60
2022/05/27 10:39:52;;;;;;;;;;;;;;;-145.66;100.00;59599.19;10376386;28;19968;-61
2022/05/27 10:45:00;;;;;;;;;;;;;;;-145.66;100.00;59599.19;10376164;28;19921;-62
2022/05/27 10:50:11;;;;;;;;;;;;;;;-145.66;100.00;59599.19;10376031;28;19993;-61
2022/05/27 10:55:25;;;;;;;;;;;;;;;-145.66;100.00;59599.19;10376068;28;19987;-61
2022/05/27 11:06:35;;;;;;;;;;;;;;;-145.66;100.00;59599.19;10457477;28;20018;-61
2022/05/27 11:11:44;;;;;;;;;;;;;;;-145.66;100.00;59599.19;10427518;28;19921;-61
2022/05/27 11:17:05;;;;;;;;;;;;;;;-145.66;100.00;59599.19;10457035;28;20268;-61
2022/05/27 11:22:28;;;;;;;;;;;;;;;-145.66;100.00;59599.19;10416322;28;19921;-66
2022/05/27 11:27:48;;;;;;;;;;;;;;;-145.66;100.00;59599.19;10398463;28;19921;-62
2022/05/27 11:33:00;;;;;;;;;;;;;;;-145.66;100.00;59599.19;10451716;28;19928;-62
2022/05/27 11:38:06;;;;;;;;;;;;;;;-145.66;100.00;59599.19;10457190;28;19986;-61
2022/05/27 11:43:28;;;;;;;;;;;;;;;-145.66;100.00;59599.19;10455090;28;20450;-61
2022/05/27 11:48:40;;;;;;;;;;;;;;;-145.66;100.00;59599.19;10455857;28;19927;-66
2022/05/27 11:53:59;;;;;;;;;;;;;;;-145.66;100.00;59599.19;10455388;28;19921;-62
2022/05/27 11:59:04;;;;;;;;;;;;;;;-145.66;100.00;59599.19;10455089;28;19931;-62
2022/05/27 12:04:08;;;;;;;;;;;;;;;-145.66;100.00;59599.19;10455495;28;19932;-62
2022/05/27 12:09:37;;;;;;;;;;;;;;;-145.66;100.00;59599.19;10455018;28;19921;-62
2022/05/27 12:14:47;;;;;;;;;;;;;;;-145.66;100.00;59599.19;10425712;28;19920;-61
2022/05/27 12:19:59;;;;;;;;;;;;;;;-145.66;100.00;59599.19;10455204;28;19921;-61
2022/05/27 12:25:01;;;;;;;;;;;;;;;-145.66;100.00;59599.19;10455020;28;19924;-61
2022/05/27 12:30:07;;;;;;;;;;;;;;;-145.66;100.00;59599.19;10458825;28;20295;-61
2022/05/27 12:35:17;;;;;;;;;;;;;;;-145.66;100.00;59599.19;10454122;28;19921;-62
2022/05/27 12:40:23;;;;;;;;;;;;;;;-145.66;100.00;59599.19;10421588;28;20356;-61
2022/05/27 12:45:25;;;;;;;;;;;;;;;-145.66;100.00;59599.19;10420217;28;20338;-62
2022/05/27 12:50:32;;;;;;;;;;;;;;;-145.66;100.00;59599.19;10420332;28;19920;-61
2022/05/27 13:00:55;;;;;;;;;;;;;;;-145.66;100.00;59599.19;10429481;28;19921;-66
2022/05/27 13:01:02;;;;;;;;;;;;;;;-145.66;100.00;59599.19;10462104;28;20356;-65
2022/05/27 13:06:15;;;;;;;;;;;;;;;-145.66;100.00;59599.19;10460740;28;19925;-65
2022/05/27 13:11:21;;;;;;;;;;;;;;;-145.66;100.00;59599.19;10461657;28;20295;-64
2022/05/27 13:16:26;;;;;;;;;;;;;;;-145.66;100.00;59599.19;10461314;28;19978;-64
2022/05/27 13:21:36;;;;;;;;;;;;;;;-145.66;100.00;59599.19;10461753;28;19921;-60
2022/05/27 13:26:42;;;;;;;;;;;;;;;-145.66;100.00;59599.19;10460036;28;20301;-60
2022/05/27 13:31:44;;;;;;;;;;;;;;;-145.66;100.00;59599.19;10460839;28;20311;-60
2022/05/27 13:36:49;;;;;;;;;;;;;;;-145.66;100.00;59599.19;10459409;28;19920;-60
2022/05/27 13:41:52;;;;;;;;;;;;;;;-145.66;100.00;59599.19;10459004;28;20379;-60
2022/05/27 13:46:58;;;;;;;;;;;;;;;-145.66;100.00;59599.19;10461027;28;19959;-60
2022/05/27 13:52:02;;;;;;;;;;;;;;;-145.66;100.00;59599.19;10458739;28;20360;-60
2022/05/27 13:57:05;;;;;;;;;;;;;;;-145.66;100.00;59599.19;10457275;28;20346;-60
2022/05/27 14:02:14;;;;;;;;;;;;;;;-145.66;100.00;59599.19;10460290;28;19921;-60
2022/05/27 14:07:21;;;;;;;;;;;;;;;-145.66;100.00;59599.19;10457986;28;20398;-60
2022/05/27 14:12:24;;;;;;;;;;;;;;;-145.66;100.00;59599.19;10458590;28;19921;-60
2022/05/27 14:17:27;;;;;;;;;;;;;;;-145.66;100.00;59599.19;10457904;28;19948;-60
2022/05/27 14:22:44;;;;;;;;;;;;;;;-145.66;100.00;59599.19;10459405;28;19921;-60
2022/05/27 14:27:51;;;;;;;;;;;;;;;-145.66;100.00;59599.19;10457550;28;19927;-60
2022/05/27 14:32:54;;;;;;;;;;;;;;;-145.66;100.00;59599.19;10457427;28;19928;-59
2022/05/27 14:38:03;;;;;;;;;;;;;;;-145.66;100.00;59599.19;10458183;28;19921;-60
2022/05/27 14:43:35;;;;;;;;;;;;;;;-145.66;100.00;59599.19;10457653;28;19927;-59
2022/05/27 14:48:38;;;;;;;;;;;;;;;-145.66;100.00;59599.19;10442418;28;19921;-60
2022/05/27 14:53:40;;;;;;;;;;;;;;;-145.66;100.00;59599.19;10457344;28;19925;-60
2022/05/27 14:58:43;;;;;;;;;;;;;;;-145.66;100.00;59599.19;10457560;28;19925;-60
2022/05/27 15:03:58;;;;;;;;;;;;;;;-145.66;100.00;59599.19;10456198;28;19921;-60
2022/05/27 15:09:06;;;;;;;;;;;;;;;-145.66;100.00;59599.19;10455332;28;20387;-59
2022/05/27 15:14:28;;;;;;;;;;;;;;;-145.66;100.00;59599.19;10457482;28;19920;-60
2022/05/27 15:19:40;;;;;;;;;;;;;;;-145.66;100.00;59599.19;10457002;28;20401;-60
2022/05/27 15:24:47;;;;;;;;;;;;;;;-145.66;100.00;59599.19;10457408;28;19927;-60
2022/05/27 15:35:15;;;;;;;;;;;;;;;-145.66;100.00;59599.19;10457193;28;19920;-59
2022/05/27 15:40:17;;;;;;;;;;;;;;;-145.66;100.00;59599.19;10457122;28;19928;-59
2022/05/27 15:45:20;;;;;;;;;;;;;;;-145.66;100.00;59599.19;10457029;28;19920;-59
2022/05/27 15:50:22;;;;;;;;;;;;;;;-145.66;100.00;59599.19;10456824;28;20364;-59
2022/05/27 15:55:24;;;;;;;;;;;;;;;-145.66;100.00;59599.19;10456698;28;19931;-59
2022/05/27 16:00:26;;;;;;;;;;;;;;;-145.66;100.00;59599.19;10456868;28;19927;-59
2022/05/27 16:05:29;;;;;;;;;;;;;;;-145.66;100.00;59599.19;10461135;28;19928;-59
2022/05/27 16:10:33;;;;;;;;;;;;;;;-145.66;100.00;59599.19;10464686;28;19928;-59
2022/05/27 16:15:36;;;;;;;;;;;;;;;-145.66;100.00;59599.19;10464368;28;19931;-60
2022/05/27 16:20:40;;;;;;;;;;;;;;;-145.66;100.00;59599.19;10464306;28;20399;-60
2022/05/27 16:25:42;;;;;;;;;;;;;;;-145.66;100.00;59599.19;10462291;28;20283;-60
2022/05/27 16:30:45;;;;;;;;;;;;;;;-145.66;100.00;59599.19;10463254;28;20244;-59
2022/05/27 16:35:48;;;;;;;;;;;;;;;-145.66;100.00;59599.19;10463698;28;19921;-59
2022/05/27 16:40:51;;;;;;;;;;;;;;;-145.66;100.00;59599.19;10463558;28;19928;-59
2022/05/27 16:45:53;;;;;;;;;;;;;;;-145.66;100.00;59599.19;10463359;28;19921;-59
2022/05/27 16:50:56;;;;;;;;;;;;;;;-145.66;100.00;59599.19;10462435;28;19925;-59
2022/05/27 16:55:58;;;;;;;;;;;;;;;-145.66;100.00;59599.19;10462184;28;20345;-59
2022/05/27 17:01:01;;;;;;;;;;;;;;;-145.66;100.00;59599.19;10462000;28;19921;-60
2022/05/27 17:06:05;;;;;;;;;;;;;;;-145.66;100.00;59599.19;10462304;28;19921;-60
2022/05/27 17:11:07;;;;;;;;;;;;;;;-145.66;100.00;59599.19;10462213;28;19920;-59
2022/05/27 17:16:10;;;;;;;;;;;;;;;-145.66;100.00;59599.19;10462271;28;19925;-59
2022/05/27 17:21:13;;;;;;;;;;;;;;;-145.66;100.00;59599.19;10461812;28;19975;-59
2022/05/27 17:26:15;;;;;;;;;;;;;;;-145.66;100.00;59599.19;10461819;28;19928;-59
2022/05/27 17:31:18;;;;;;;;;;;;;;;-145.66;100.00;59599.19;10461410;28;19921;-59
2022/05/27 17:36:20;;;;;;;;;;;;;;;-145.66;100.00;59599.19;10461369;28;19928;-59
2022/05/27 17:41:22;;;;;;;;;;;;;;;-145.66;100.00;59599.19;10461212;28;19927;-59
2022/05/27 17:51:19;;;;;;;;;;;;;;;-145.66;100.00;59599.19;10459649;28;20280;-60
2022/05/27 17:51:47;;;;;;;;;;;;;;;-145.66;100.00;59599.19;10460187;28;20360;-59
2022/05/27 17:56:49;;;;;;;;;;;;;;;-145.66;100.00;59599.19;10459956;28;19921;-59
2022/05/27 18:01:51;;;;;;;;;;;;;;;-145.66;100.00;59599.19;10460365;28;19928;-59
2022/05/27 18:06:53;;;;;;;;;;;;;;;-145.66;100.00;59599.19;10459545;28;20394;-59
2022/05/27 18:11:56;;;;;;;;;;;;;;;-145.66;100.00;59599.19;10458100;28;19925;-59
2022/05/27 18:16:58;;;;;;;;;;;;;;;-145.66;100.00;59599.19;10458817;28;19921;-59
2022/05/27 18:22:00;;;;;;;;;;;;;;;-145.66;100.00;59599.19;10460182;28;19963;-59
2022/05/27 18:27:02;;;;;;;;;;;;;;;-145.66;100.00;59599.19;10458756;28;19920;-59
2022/05/27 18:32:06;;;;;;;;;;;;;;;-145.66;100.00;59599.19;10459107;28;19932;-59
2022/05/27 18:37:08;;;;;;;;;;;;;;;-145.66;100.00;59599.19;10457732;28;19920;-59
2022/05/27 18:42:10;;;;;;;;;;;;;;;-145.66;100.00;59599.19;10458860;28;19925;-60
2022/05/27 18:47:13;;;;;;;;;;;;;;;-145.66;100.00;59599.19;10458334;28;19924;-59
2022/05/27 18:52:15;;;;;;;;;;;;;;;-145.66;100.00;59599.19;10458696;28;19920;-59
2022/05/27 18:57:17;;;;;;;;;;;;;;;-145.66;100.00;59599.19;10457586;28;19932;-59
2022/05/27 19:02:20;;;;;;;;;;;;;;;-145.66;100.00;59599.19;10457046;28;19921;-59
2022/05/27 19:07:23;;;;;;;;;;;;;;;-145.66;100.00;59599.19;10457977;28;19963;-59
2022/05/27 19:12:25;;;;;;;;;;;;;;;-145.66;100.00;59599.19;10457193;28;20284;-59
2022/05/27 19:17:27;;;;;;;;;;;;;;;-145.66;100.00;59599.19;10456603;28;19928;-59
2022/05/27 19:22:29;;;;;;;;;;;;;;;-145.66;100.00;59599.19;10458011;28;19921;-59
2022/05/27 19:27:31;;;;;;;;;;;;;;;-145.66;100.00;59599.19;10456837;28;20379;-59
2022/05/27 19:32:34;;;;;;;;;;;;;;;-145.66;100.00;59599.19;10456452;28;20363;-59
2022/05/27 19:37:36;;;;;;;;;;;;;;;-145.66;100.00;59599.19;10458086;28;20412;-59
2022/05/27 19:42:39;;;;;;;;;;;;;;;-145.66;100.00;59599.19;10465492;28;19928;-59
2022/05/27 19:47:41;;;;;;;;;;;;;;;-145.66;100.00;59599.19;10464934;28;19927;-59
2022/05/27 19:52:43;;;;;;;;;;;;;;;-145.66;100.00;59599.19;10464771;28;19920;-59
2022/05/27 20:08:27;;;;;;;;;;;;;;;-145.66;100.00;59599.19;10464324;28;19928;-59
2022/05/27 20:13:33;;;;;;;;;;;;;;;-145.66;100.00;59599.19;10463976;28;20383;-59
2022/05/27 20:18:35;;;;;;;;;;;;;;;-145.66;100.00;59599.19;10464089;28;19925;-59
2022/05/27 20:23:37;;;;;;;;;;;;;;;-145.66;100.00;59599.19;10464257;28;19921;-59
2022/05/27 20:28:39;;;;;;;;;;;;;;;-145.66;100.00;59599.19;10464072;28;19921;-59
2022/05/27 20:33:41;;;;;;;;;;;;;;;-145.66;100.00;59599.19;10463857;28;19928;-59
2022/05/27 20:38:44;;;;;;;;;;;;;;;-145.66;100.00;59599.19;10462889;28;20002;-59
2022/05/27 20:43:47;;;;;;;;;;;;;;;-145.66;100.00;59599.19;10463489;28;19924;-59
2022/05/27 20:48:49;;;;;;;;;;;;;;;-145.66;100.00;59599.19;10461988;28;20283;-59
2022/05/27 20:53:51;;;;;;;;;;;;;;;-145.66;100.00;59599.19;10462284;28;19920;-59
2022/05/27 20:58:53;;;;;;;;;;;;;;;-145.66;100.00;59599.19;10461746;28;19927;-59
2022/05/27 21:03:55;;;;;;;;;;;;;;;-145.66;100.00;59599.19;10462065;28;20510;-59
2022/05/27 21:08:58;;;;;;;;;;;;;;;-145.66;100.00;59599.19;10461849;28;20295;-59
2022/05/27 21:14:01;;;;;;;;;;;;;;;-145.66;100.00;59599.19;10461180;28;19927;-59
2022/05/27 21:19:05;;;;;;;;;;;;;;;-145.66;100.00;59599.19;10461518;28;19921;-59
2022/05/27 21:24:08;;;;;;;;;;;;;;;-145.66;100.00;59599.19;10461747;28;19966;-59
2022/05/27 21:29:10;;;;;;;;;;;;;;;-145.66;100.00;59599.19;10461044;28;20382;-59
2022/05/27 21:34:12;;;;;;;;;;;;;;;-145.66;100.00;59599.19;10461306;28;19927;-59
2022/05/27 21:39:18;;;;;;;;;;;;;;;-145.66;100.00;59599.19;10460164;28;19920;-59
2022/05/27 21:44:21;;;;;;;;;;;;;;;-145.66;100.00;59599.19;10461167;28;19927;-59
2022/05/27 21:49:24;;;;;;;;;;;;;;;-145.66;100.00;59599.19;10460778;28;19920;-59
2022/05/27 21:54:26;;;;;;;;;;;;;;;-145.66;100.00;59599.19;10459811;28;19924;-59
2022/05/27 21:59:28;;;;;;;;;;;;;;;-145.66;100.00;59599.19;10459944;28;19921;-59
2022/05/27 22:04:30;;;;;;;;;;;;;;;-145.66;100.00;59599.19;10458453;28;19921;-59
2022/05/27 22:14:53;;;;;;;;;;;;;;;-145.66;100.00;59599.19;10460041;28;19928;-59
2022/05/27 22:19:55;;;;;;;;;;;;;;;-145.66;100.00;59599.19;10458661;28;19953;-59
2022/05/27 22:24:57;;;;;;;;;;;;;;;-145.66;100.00;59599.19;10459524;28;19921;-59
2022/05/27 22:30:00;;;;;;;;;;;;;;;-145.66;100.00;59599.19;10457636;28;19921;-59
2022/05/27 22:35:02;;;;;;;;;;;;;;;-145.66;100.00;59599.19;10458935;28;19927;-59
2022/05/27 22:40:05;;;;;;;;;;;;;;;-145.66;100.00;59599.19;10458933;28;19995;-59
2022/05/27 22:45:08;;;;;;;;;;;;;;;-145.66;100.00;59599.19;10457665;28;19921;-59
2022/05/27 22:50:10;;;;;;;;;;;;;;;-145.66;100.00;59599.19;10458068;28;19920;-59
2022/05/27 22:55:13;;;;;;;;;;;;;;;-145.66;100.00;59599.19;10458341;28;19924;-59
2022/05/27 23:00:15;;;;;;;;;;;;;;;-145.66;100.00;59599.19;10457746;28;20275;-59
2022/05/27 23:05:17;;;;;;;;;;;;;;;-145.66;100.00;59599.19;10457904;28;19921;-59
2022/05/27 23:10:20;;;;;;;;;;;;;;;-145.66;100.00;59599.19;10457263;28;20287;-59
2022/05/27 23:20:43;;;;;;;;;;;;;;;-145.66;100.00;59599.19;10375673;28;20025;-59
2022/05/27 23:25:49;;;;;;;;;;;;;;;-145.66;100.00;59599.19;10390654;28;19921;-59
2022/05/27 23:30:52;;;;;;;;;;;;;;;-145.66;100.00;59599.19;10374693;28;20402;-59
2022/05/27 23:35:55;;;;;;;;;;;;;;;-145.66;100.00;59599.19;10374586;28;20327;-59
2022/05/27 23:40:57;;;;;;;;;;;;;;;-145.66;100.00;59599.19;10374969;28;19933;-59
2022/05/27 23:46:00;;;;;;;;;;;;;;;-145.66;100.00;59599.19;10374263;28;19921;-59
2022/05/27 23:51:04;;;;;;;;;;;;;;;-145.66;100.00;59599.19;10375053;28;19922;-59
2022/05/27 23:56:07;;;;;;;;;;;;;;;-145.66;100.00;59599.19;10374876;28;19921;-59
